Time;durP1;ratioP1;P1;durP2;ratioP2;P2;SDS_P1;SDS_P2;PMS_P1;PMS_P2;Temp;Humidity;BMP_temperature;BMP_pressure;BME280_temperature;BME280_humidity;BME280_pressure;Samples;Min_cycle;Max_cycle;Signal;HPM_P1;HPM_P2
2022/06/25 00:01:21;;;;;;;21.10;11.85;;;;;;;;;;6247993;22;20017;-81
2022/06/25 00:03:49;;;;;;;14.55;9.75;;;;;;;;;;6247711;22;20087;-80
2022/06/25 00:06:16;;;;;;;24.70;9.30;;;;;;;;;;6247834;22;20025;-81
2022/06/25 00:08:48;;;;;;;15.18;10.05;;;;;;;;;;6248291;22;20801;-80
2022/06/25 00:14:07;;;;;;;21.27;10.00;;;;;;;;;;6248334;22;20025;-80
2022/06/25 00:16:37;;;;;;;16.90;9.65;;;;;;;;;;6247965;22;20032;-80
2022/06/25 00:19:10;;;;;;;16.23;8.95;;;;;;;;;;6247786;22;20879;-80
2022/06/25 00:21:40;;;;;;;15.55;9.35;;;;;;;;;;6247727;22;20104;-80
2022/06/25 00:24:07;;;;;;;14.38;9.70;;;;;;;;;;6247709;22;20450;-80
2022/06/25 00:26:36;;;;;;;19.60;10.02;;;;;;;;;;6247491;22;20029;-80
2022/06/25 00:29:03;;;;;;;24.13;10.45;;;;;;;;;;6248661;22;20106;-80
2022/06/25 00:31:32;;;;;;;15.18;9.35;;;;;;;;;;6248898;22;20017;-80
2022/06/25 00:33:59;;;;;;;12.75;8.80;;;;;;;;;;6222263;22;20021;-80
2022/06/25 00:36:26;;;;;;;14.88;9.52;;;;;;;;;;6249506;22;20404;-80
2022/06/25 00:38:54;;;;;;;15.20;10.18;;;;;;;;;;6249461;22;20027;-80
2022/06/25 00:41:21;;;;;;;17.17;10.25;;;;;;;;;;6222744;22;20024;-80
2022/06/25 00:43:52;;;;;;;16.85;9.57;;;;;;;;;;6249640;22;20820;-81
2022/06/25 00:46:20;;;;;;;26.65;9.95;;;;;;;;;;6249596;22;20049;-79
2022/06/25 00:48:47;;;;;;;15.13;9.30;;;;;;;;;;6222735;22;20102;-80
2022/06/25 00:51:14;;;;;;;13.93;10.15;;;;;;;;;;6249604;22;20108;-81
2022/06/25 00:53:46;;;;;;;14.63;9.10;;;;;;;;;;6249132;22;20725;-81
2022/06/25 00:56:14;;;;;;;20.40;9.90;;;;;;;;;;6222858;22;20729;-80
2022/06/25 00:58:43;;;;;;;26.90;9.82;;;;;;;;;;6249424;22;20017;-80
2022/06/25 01:01:10;;;;;;;14.25;9.65;;;;;;;;;;6249141;22;20484;-80
2022/06/25 01:03:37;;;;;;;20.65;10.27;;;;;;;;;;6249766;22;20021;-81
2022/06/25 01:06:06;;;;;;;15.65;9.90;;;;;;;;;;6249239;22;20096;-80
2022/06/25 01:08:34;;;;;;;18.60;10.00;;;;;;;;;;6248642;22;20025;-81
2022/06/25 01:11:01;;;;;;;14.25;10.40;;;;;;;;;;6248954;22;20020;-80
2022/06/25 01:13:31;;;;;;;16.48;10.35;;;;;;;;;;6249317;22;20024;-79
2022/06/25 01:15:59;;;;;;;14.02;9.65;;;;;;;;;;6249417;22;20042;-80
2022/06/25 01:18:27;;;;;;;19.23;9.85;;;;;;;;;;6222799;22;20030;-80
2022/06/25 01:20:54;;;;;;;12.45;9.85;;;;;;;;;;6249566;22;20516;-81
2022/06/25 01:23:22;;;;;;;19.25;9.82;;;;;;;;;;6249528;22;20450;-81
2022/06/25 01:25:50;;;;;;;12.57;9.07;;;;;;;;;;6249187;22;20106;-80
2022/06/25 01:28:18;;;;;;;18.27;9.65;;;;;;;;;;6249392;22;20008;-80
2022/06/25 01:30:45;;;;;;;15.38;9.73;;;;;;;;;;6249356;22;20045;-80
2022/06/25 01:33:12;;;;;;;15.82;9.65;;;;;;;;;;6248822;22;20052;-80
2022/06/25 01:35:39;;;;;;;15.82;9.02;;;;;;;;;;6249666;22;20052;-80
2022/06/25 01:38:06;;;;;;;14.35;9.88;;;;;;;;;;6249576;22;20395;-81
2022/06/25 01:40:34;;;;;;;15.82;10.15;;;;;;;;;;6249050;22;20027;-80
2022/06/25 01:43:01;;;;;;;16.02;10.27;;;;;;;;;;6248898;22;20024;-80
2022/06/25 01:45:34;;;;;;;12.18;9.55;;;;;;;;;;6222318;22;20155;-81
2022/06/25 01:48:01;;;;;;;14.45;8.65;;;;;;;;;;6249597;22;20059;-80
2022/06/25 01:50:30;;;;;;;18.98;9.82;;;;;;;;;;6249557;22;20407;-81
2022/06/25 01:52:57;;;;;;;16.10;9.70;;;;;;;;;;6248513;22;20099;-80
2022/06/25 01:55:24;;;;;;;15.77;9.13;;;;;;;;;;6249323;22;20032;-80
2022/06/25 01:57:53;;;;;;;14.02;9.32;;;;;;;;;;6249757;22;20016;-80
2022/06/25 02:00:23;;;;;;;19.67;9.30;;;;;;;;;;6222848;22;20116;-80
2022/06/25 02:02:50;;;;;;;13.43;8.48;;;;;;;;;;6249232;22;20028;-80
2022/06/25 02:05:56;;;;;;;15.07;8.85;;;;;;;;;;6249223;22;20028;-80
2022/06/25 02:08:07;;;;;;;14.85;9.35;;;;;;;;;;6249993;22;20087;-80
2022/06/25 02:10:34;;;;;;;14.90;9.80;;;;;;;;;;6223451;22;20028;-80
2022/06/25 02:13:01;;;;;;;23.38;9.68;;;;;;;;;;6222994;22;20024;-81
2022/06/25 02:15:32;;;;;;;18.15;8.93;;;;;;;;;;6249222;22;20103;-80
2022/06/25 02:18:00;;;;;;;18.20;8.90;;;;;;;;;;6249376;22;20048;-81
2022/06/25 02:20:27;;;;;;;11.75;9.02;;;;;;;;;;6249906;22;20092;-81
2022/06/25 02:22:54;;;;;;;17.20;8.75;;;;;;;;;;6222668;22;20028;-80
2022/06/25 02:25:21;;;;;;;12.75;8.75;;;;;;;;;;6248878;22;20031;-80
2022/06/25 02:27:51;;;;;;;16.75;8.25;;;;;;;;;;6248933;22;20048;-81
2022/06/25 02:30:18;;;;;;;27.55;8.93;;;;;;;;;;6221780;22;20048;-80
2022/06/25 02:32:45;;;;;;;14.32;8.18;;;;;;;;;;6249370;22;20031;-80
2022/06/25 02:35:12;;;;;;;11.25;7.28;;;;;;;;;;6249006;22;20028;-80
2022/06/25 02:37:39;;;;;;;14.60;8.80;;;;;;;;;;6249341;22;20040;-80
2022/06/25 02:40:10;;;;;;;16.63;8.32;;;;;;;;;;6249176;22;20028;-80
2022/06/25 02:42:38;;;;;;;18.95;8.65;;;;;;;;;;6249836;22;20047;-80
2022/06/25 02:45:06;;;;;;;11.88;8.00;;;;;;;;;;6249253;22;20104;-79
2022/06/25 02:47:33;;;;;;;19.33;8.30;;;;;;;;;;6222055;22;20078;-80
2022/06/25 02:50:01;;;;;;;16.90;8.10;;;;;;;;;;6248994;22;20519;-80
2022/06/25 02:52:28;;;;;;;10.80;7.40;;;;;;;;;;6248629;22;20656;-80
2022/06/25 02:54:58;;;;;;;19.50;8.77;;;;;;;;;;6248670;22;20056;-80
2022/06/25 03:00:13;;;;;;;8.25;6.60;;;;;;;;;;6249221;22;20111;-81
2022/06/25 03:02:40;;;;;;;17.60;7.30;;;;;;;;;;6249202;22;20020;-80
2022/06/25 03:05:08;;;;;;;12.93;7.50;;;;;;;;;;6248606;22;20024;-80
2022/06/25 03:07:35;;;;;;;10.98;6.47;;;;;;;;;;6248239;22;20705;-80
2022/06/25 03:10:06;;;;;;;15.68;7.10;;;;;;;;;;6222023;22;20079;-80
2022/06/25 03:12:33;;;;;;;14.55;7.18;;;;;;;;;;6248617;22;20030;-80
2022/06/25 03:15:00;;;;;;;14.35;6.70;;;;;;;;;;6221458;22;20039;-80
2022/06/25 03:17:28;;;;;;;13.43;7.53;;;;;;;;;;6248831;22;20361;-80
2022/06/25 03:19:56;;;;;;;11.88;6.50;;;;;;;;;;6248440;22;20017;-80
2022/06/25 03:22:23;;;;;;;16.23;7.03;;;;;;;;;;6248760;22;20052;-80
2022/06/25 03:24:50;;;;;;;18.30;7.13;;;;;;;;;;6248565;22;20016;-80
2022/06/25 03:27:17;;;;;;;14.75;7.22;;;;;;;;;;6248346;22;20027;-80
2022/06/25 03:29:44;;;;;;;11.52;5.90;;;;;;;;;;6248603;22;20031;-80
2022/06/25 03:32:11;;;;;;;12.55;6.43;;;;;;;;;;6221568;22;20020;-80
2022/06/25 03:34:41;;;;;;;12.52;6.88;;;;;;;;;;6247952;22;20067;-80
2022/06/25 03:37:09;;;;;;;12.23;6.53;;;;;;;;;;6248451;22;20665;-80
2022/06/25 03:39:36;;;;;;;9.63;6.13;;;;;;;;;;6248229;22;20462;-80
2022/06/25 03:42:03;;;;;;;19.98;5.78;;;;;;;;;;6248404;22;20051;-80
2022/06/25 03:44:30;;;;;;;13.65;6.05;;;;;;;;;;6221517;22;20025;-80
2022/06/25 03:46:57;;;;;;;9.32;5.68;;;;;;;;;;6248146;22;20028;-80
2022/06/25 03:49:25;;;;;;;14.90;6.30;;;;;;;;;;6248826;22;20075;-80
2022/06/25 03:51:52;;;;;;;13.75;6.63;;;;;;;;;;6248428;22;20155;-80
2022/06/25 03:54:20;;;;;;;11.32;5.57;;;;;;;;;;6248006;22;20079;-80
2022/06/25 03:56:47;;;;;;;14.27;5.72;;;;;;;;;;6221160;22;20461;-80
2022/06/25 03:59:14;;;;;;;12.32;6.03;;;;;;;;;;6248374;22;20017;-80
2022/06/25 04:01:41;;;;;;;10.77;6.32;;;;;;;;;;6248533;22;20040;-81
2022/06/25 04:04:09;;;;;;;12.35;6.00;;;;;;;;;;6249055;22;20139;-80
2022/06/25 04:06:36;;;;;;;10.38;5.38;;;;;;;;;;6249750;22;20025;-80
2022/06/25 04:09:04;;;;;;;13.38;5.70;;;;;;;;;;6249403;22;20888;-80
2022/06/25 04:11:31;;;;;;;14.93;5.30;;;;;;;;;;6249492;22;20025;-80
2022/06/25 04:13:58;;;;;;;13.20;5.57;;;;;;;;;;6249373;22;20474;-80
2022/06/25 04:16:25;;;;;;;10.80;5.45;;;;;;;;;;6249093;22;20025;-80
2022/06/25 04:18:53;;;;;;;7.82;5.20;;;;;;;;;;6249463;22;20016;-80
2022/06/25 04:21:20;;;;;;;7.78;4.68;;;;;;;;;;6222625;22;20056;-80
2022/06/25 04:23:47;;;;;;;6.53;4.20;;;;;;;;;;6249827;22;20120;-80
2022/06/25 04:26:14;;;;;;;7.07;4.65;;;;;;;;;;6249680;22;20055;-81
2022/06/25 04:31:28;;;;;;;13.70;4.88;;;;;;;;;;6249953;22;20028;-80
2022/06/25 04:33:57;;;;;;;7.75;5.20;;;;;;;;;;6222366;22;20037;-80
2022/06/25 04:36:24;;;;;;;6.30;4.30;;;;;;;;;;6249387;22;20016;-80
2022/06/25 04:38:52;;;;;;;10.65;4.50;;;;;;;;;;6249231;22;20040;-80
2022/06/25 04:41:19;;;;;;;9.68;4.93;;;;;;;;;;6249597;22;20031;-80
2022/06/25 04:43:46;;;;;;;8.38;4.72;;;;;;;;;;6249377;22;20059;-80
2022/06/25 04:46:13;;;;;;;10.45;5.00;;;;;;;;;;6249346;22;20027;-80
2022/06/25 04:48:41;;;;;;;6.47;4.43;;;;;;;;;;6249252;22;20021;-80
2022/06/25 04:51:09;;;;;;;9.57;4.18;;;;;;;;;;6249121;22;20025;-80
2022/06/25 04:53:55;;;;;;;8.52;4.18;;;;;;;;;;6249167;22;20020;-80
2022/06/25 04:56:23;;;;;;;8.70;3.53;;;;;;;;;;6249168;22;20226;-80
2022/06/25 04:58:53;;;;;;;14.77;3.78;;;;;;;;;;6248985;22;20040;-80
2022/06/25 05:01:21;;;;;;;8.77;3.70;;;;;;;;;;6249464;22;20414;-80
2022/06/25 05:03:48;;;;;;;7.20;3.38;;;;;;;;;;6249001;22;20097;-81
2022/06/25 05:06:16;;;;;;;8.50;3.40;;;;;;;;;;6249063;22;20024;-80
2022/06/25 05:08:46;;;;;;;5.80;3.10;;;;;;;;;;6249212;22;20100;-81
2022/06/25 05:11:13;;;;;;;7.57;3.10;;;;;;;;;;6249167;22;20067;-80
2022/06/25 05:13:40;;;;;;;9.85;3.40;;;;;;;;;;6248734;22;21196;-80
2022/06/25 05:16:07;;;;;;;4.82;3.00;;;;;;;;;;6248623;22;20025;-80
2022/06/25 05:18:34;;;;;;;12.27;3.97;;;;;;;;;;6249181;22;20028;-80
2022/06/25 05:21:04;;;;;;;7.20;2.97;;;;;;;;;;6249368;22;20617;-81
2022/06/25 05:23:31;;;;;;;6.13;3.70;;;;;;;;;;6221962;22;20848;-80
2022/06/25 05:25:58;;;;;;;6.30;3.20;;;;;;;;;;6249253;22;20051;-81
2022/06/25 05:28:28;;;;;;;12.02;3.50;;;;;;;;;;6222010;22;20028;-79
2022/06/25 05:30:55;;;;;;;9.88;3.50;;;;;;;;;;6248817;22;20023;-80
2022/06/25 05:33:22;;;;;;;9.30;3.33;;;;;;;;;;6248878;22;20056;-81
2022/06/25 05:35:49;;;;;;;6.13;3.35;;;;;;;;;;6221932;22;20105;-79
2022/06/25 05:38:16;;;;;;;4.47;3.10;;;;;;;;;;6248822;22;20087;-80
2022/06/25 05:40:43;;;;;;;10.90;3.45;;;;;;;;;;6248730;22;20406;-80
2022/06/25 05:43:11;;;;;;;10.52;3.20;;;;;;;;;;6248683;22;20060;-80
2022/06/25 05:45:38;;;;;;;8.70;3.50;;;;;;;;;;6222143;22;20849;-80
2022/06/25 05:48:05;;;;;;;6.50;3.30;;;;;;;;;;6249056;22;20090;-79
2022/06/25 05:50:35;;;;;;;10.48;3.97;;;;;;;;;;6248616;22;20107;-80
2022/06/25 05:53:03;;;;;;;7.43;3.70;;;;;;;;;;6248714;22;20029;-79
2022/06/25 05:55:34;;;;;;;7.72;3.90;;;;;;;;;;6248375;22;20426;-79
2022/06/25 05:58:01;;;;;;;6.43;3.50;;;;;;;;;;6249075;22;20021;-79
2022/06/25 06:00:28;;;;;;;7.75;3.55;;;;;;;;;;6248905;22;20113;-81
2022/06/25 06:02:55;;;;;;;9.32;3.63;;;;;;;;;;6222094;22;20025;-80
2022/06/25 06:05:23;;;;;;;10.35;3.20;;;;;;;;;;6248708;22;20090;-80
2022/06/25 06:07:50;;;;;;;8.85;4.00;;;;;;;;;;6222030;22;20549;-80
2022/06/25 06:10:17;;;;;;;6.30;3.10;;;;;;;;;;6249123;22;20116;-80
2022/06/25 06:12:44;;;;;;;9.43;3.38;;;;;;;;;;6249018;22;20112;-80
2022/06/25 06:15:17;;;;;;;6.75;3.63;;;;;;;;;;6248618;22;20060;-80
2022/06/25 06:17:48;;;;;;;6.35;3.90;;;;;;;;;;6248729;22;20013;-80
2022/06/25 06:20:15;;;;;;;10.32;3.00;;;;;;;;;;6249014;22;20892;-80
2022/06/25 06:22:42;;;;;;;5.45;3.17;;;;;;;;;;6221838;22;20028;-80
2022/06/25 06:25:09;;;;;;;8.88;3.20;;;;;;;;;;6248423;22;20024;-80
2022/06/25 06:27:36;;;;;;;5.90;2.95;;;;;;;;;;6248766;22;20758;-81
2022/06/25 06:30:05;;;;;;;9.32;3.10;;;;;;;;;;6248833;22;20016;-80
2022/06/25 06:32:32;;;;;;;8.60;3.60;;;;;;;;;;6221988;22;20623;-80
2022/06/25 06:34:59;;;;;;;5.40;2.80;;;;;;;;;;6248604;22;20052;-80
2022/06/25 06:37:29;;;;;;;5.10;2.60;;;;;;;;;;6221955;22;20021;-80
2022/06/25 06:39:59;;;;;;;7.47;2.70;;;;;;;;;;6248706;22;20052;-81
2022/06/25 06:42:26;;;;;;;5.82;2.50;;;;;;;;;;6248628;22;20075;-80
2022/06/25 06:44:53;;;;;;;4.90;2.53;;;;;;;;;;6221525;22;20063;-80
2022/06/25 06:47:20;;;;;;;6.68;2.85;;;;;;;;;;6222252;22;20021;-80
2022/06/25 06:49:47;;;;;;;6.53;2.95;;;;;;;;;;6221824;22;20012;-80
2022/06/25 06:52:15;;;;;;;10.88;3.20;;;;;;;;;;6221793;22;20025;-81
2022/06/25 06:54:42;;;;;;;6.88;2.60;;;;;;;;;;6221627;22;20025;-80
2022/06/25 06:57:09;;;;;;;6.40;2.72;;;;;;;;;;6248636;22;20784;-80
2022/06/25 06:59:36;;;;;;;10.52;3.15;;;;;;;;;;6221744;22;20017;-80
2022/06/25 07:02:07;;;;;;;6.82;3.10;;;;;;;;;;6222313;22;20028;-80
2022/06/25 07:04:41;;;;;;;9.82;3.30;;;;;;;;;;6222708;22;20072;-80
2022/06/25 07:07:11;;;;;;;10.13;2.90;;;;;;;;;;6248571;22;20319;-80
2022/06/25 07:09:41;;;;;;;9.05;3.13;;;;;;;;;;6248583;22;20020;-80
2022/06/25 07:12:11;;;;;;;8.35;3.20;;;;;;;;;;6248851;22;20730;-80
2022/06/25 07:14:38;;;;;;;7.10;2.75;;;;;;;;;;6248682;22;20912;-80
2022/06/25 07:17:05;;;;;;;8.82;2.88;;;;;;;;;;6228120;22;20017;-80
2022/06/25 07:19:32;;;;;;;6.35;2.63;;;;;;;;;;6254660;22;20028;-80
2022/06/25 07:22:02;;;;;;;9.13;3.05;;;;;;;;;;6223149;22;20025;-80
2022/06/25 07:24:30;;;;;;;7.18;3.10;;;;;;;;;;6249584;22;20031;-80
2022/06/25 07:26:58;;;;;;;7.70;2.92;;;;;;;;;;6222096;22;20020;-80
2022/06/25 07:29:25;;;;;;;7.22;2.85;;;;;;;;;;6222163;22;20359;-80
2022/06/25 07:31:52;;;;;;;9.23;2.80;;;;;;;;;;6221528;22;20500;-80
2022/06/25 07:34:22;;;;;;;8.90;3.03;;;;;;;;;;6221511;22;20051;-80
2022/06/25 07:36:49;;;;;;;4.57;2.53;;;;;;;;;;6248298;22;20031;-80
2022/06/25 07:39:17;;;;;;;7.30;2.60;;;;;;;;;;6223001;22;20377;-80
2022/06/25 07:41:45;;;;;;;12.10;3.22;;;;;;;;;;6249501;22;20737;-81
2022/06/25 07:44:12;;;;;;;7.00;2.88;;;;;;;;;;6222932;22;20079;-80
2022/06/25 07:46:39;;;;;;;8.25;2.70;;;;;;;;;;6249660;22;20017;-80
2022/06/25 07:49:09;;;;;;;7.45;2.95;;;;;;;;;;6249689;22;20035;-80
2022/06/25 07:54:25;;;;;;;7.28;2.80;;;;;;;;;;6249530;22;20028;-81
2022/06/25 07:56:52;;;;;;;7.25;2.92;;;;;;;;;;6222949;22;20037;-80
2022/06/25 07:59:20;;;;;;;7.38;2.80;;;;;;;;;;6222487;22;20021;-80
2022/06/25 08:01:47;;;;;;;8.43;2.83;;;;;;;;;;6222878;22;20067;-80
2022/06/25 08:04:15;;;;;;;9.88;3.53;;;;;;;;;;6222895;22;20437;-80
2022/06/25 08:06:46;;;;;;;10.05;3.28;;;;;;;;;;6223019;22;20025;-80
2022/06/25 08:09:15;;;;;;;6.60;3.00;;;;;;;;;;6249757;22;20377;-80
2022/06/25 08:11:45;;;;;;;7.82;3.15;;;;;;;;;;6223220;22;20028;-81
2022/06/25 08:14:13;;;;;;;5.22;2.60;;;;;;;;;;6222582;22;20032;-80
2022/06/25 08:16:40;;;;;;;7.93;2.97;;;;;;;;;;6249504;22;20786;-80
2022/06/25 08:19:10;;;;;;;7.05;2.70;;;;;;;;;;6222998;22;20044;-80
2022/06/25 08:21:38;;;;;;;7.88;3.00;;;;;;;;;;6249827;22;20028;-80
2022/06/25 08:24:12;;;;;;;6.50;2.70;;;;;;;;;;6224200;22;20028;-80
2022/06/25 08:26:43;;;;;;;8.18;2.50;;;;;;;;;;6249265;22;20013;-80
2022/06/25 08:29:10;;;;;;;5.82;3.00;;;;;;;;;;6222539;22;20020;-81
2022/06/25 08:31:44;;;;;;;6.72;2.70;;;;;;;;;;6222175;22;20025;-81
2022/06/25 08:34:21;;;;;;;10.27;2.92;;;;;;;;;;6223856;22;20079;-80
2022/06/25 08:36:50;;;;;;;6.28;2.72;;;;;;;;;;6222442;22;20082;-80
2022/06/25 08:39:17;;;;;;;6.60;3.17;;;;;;;;;;6222457;22;20095;-80
2022/06/25 08:41:55;;;;;;;5.97;3.00;;;;;;;;;;6223699;22;20028;-80
2022/06/25 08:44:23;;;;;;;6.93;3.20;;;;;;;;;;6222289;22;20432;-80
2022/06/25 08:46:53;;;;;;;5.88;2.95;;;;;;;;;;6249116;22;20816;-80
2022/06/25 08:49:23;;;;;;;5.22;2.67;;;;;;;;;;6222264;22;20024;-80
2022/06/25 08:51:53;;;;;;;5.90;2.80;;;;;;;;;;6222409;22;20032;-80
2022/06/25 08:54:22;;;;;;;5.00;2.45;;;;;;;;;;6248693;22;20016;-80
2022/06/25 08:56:50;;;;;;;6.40;2.90;;;;;;;;;;6222430;22;20099;-80
2022/06/25 08:59:20;;;;;;;7.93;3.38;;;;;;;;;;6249964;22;20021;-80
2022/06/25 09:01:55;;;;;;;5.82;2.65;;;;;;;;;;6248919;22;20055;-80
2022/06/25 09:04:22;;;;;;;5.47;2.63;;;;;;;;;;6222500;22;20462;-80
2022/06/25 09:06:53;;;;;;;8.93;3.40;;;;;;;;;;6222457;22;20565;-80
2022/06/25 09:09:23;;;;;;;7.43;2.72;;;;;;;;;;6248043;22;20040;-82
2022/06/25 09:12:00;;;;;;;7.57;2.83;;;;;;;;;;6222407;22;20094;-80
2022/06/25 09:14:34;;;;;;;5.25;2.60;;;;;;;;;;6249306;22;20848;-80
2022/06/25 09:17:08;;;;;;;5.18;2.55;;;;;;;;;;6222209;22;20047;-80
2022/06/25 09:19:37;;;;;;;;;;;;;;;;;;6223183;22;20028;-80
2022/06/25 09:22:05;;;;;;;7.53;2.75;;;;;;;;;;6221193;22;44324;-80
2022/06/25 09:24:45;;;;;;;5.55;2.40;;;;;;;;;;6221981;22;20020;-80
2022/06/25 09:27:13;;;;;;;6.07;2.40;;;;;;;;;;6221968;22;20047;-80
2022/06/25 09:29:45;;;;;;;3.15;2.05;;;;;;;;;;6225886;22;20017;-81
2022/06/25 09:32:13;;;;;;;7.43;2.85;;;;;;;;;;6223748;22;20772;-82
2022/06/25 09:34:42;;;;;;;5.10;2.40;;;;;;;;;;6250169;22;20025;-80
2022/06/25 09:37:16;;;;;;;9.45;3.08;;;;;;;;;;6248450;22;20017;-80
2022/06/25 09:39:44;;;;;;;7.28;3.08;;;;;;;;;;6249630;22;20048;-80
2022/06/25 09:42:26;;;;;;;5.43;3.67;;;;;;;;;;6248765;22;20051;-80
2022/06/25 09:45:06;;;;;;;8.43;4.35;;;;;;;;;;6221909;22;20119;-80
2022/06/25 09:47:39;;;;;;;11.80;3.80;;;;;;;;;;6248927;22;20067;-80
2022/06/25 09:50:09;;;;;;;9.85;3.85;;;;;;;;;;6221602;22;20012;-80
2022/06/25 09:52:49;;;;;;;8.27;3.73;;;;;;;;;;6222677;22;20052;-80
2022/06/25 09:55:25;;;;;;;7.35;3.97;;;;;;;;;;6221272;22;20095;-80
2022/06/25 09:57:53;;;;;;;6.90;4.00;;;;;;;;;;6222042;22;20024;-80
2022/06/25 10:00:22;;;;;;;5.88;3.70;;;;;;;;;;6221318;22;20067;-81
2022/06/25 10:02:53;;;;;;;5.43;3.42;;;;;;;;;;6221786;22;20099;-80
2022/06/25 10:05:39;;;;;;;5.80;3.60;;;;;;;;;;6222281;22;20046;-80
2022/06/25 10:08:11;;;;;;;7.45;3.63;;;;;;;;;;6222617;22;20025;-80
2022/06/25 10:10:44;;;;;;;6.97;3.90;;;;;;;;;;6222345;22;20879;-80
2022/06/25 10:13:13;;;;;;;6.03;3.80;;;;;;;;;;6221798;22;20048;-80
2022/06/25 10:15:40;;;;;;;10.40;3.35;;;;;;;;;;6221913;22;20808;-80
2022/06/25 10:18:10;;;;;;;6.05;3.28;;;;;;;;;;6221832;22;20017;-80
2022/06/25 10:20:38;;;;;;;8.13;3.28;;;;;;;;;;6221635;22;20017;-80
2022/06/25 10:23:08;;;;;;;6.55;3.42;;;;;;;;;;6221433;22;20017;-80
2022/06/25 10:25:39;;;;;;;7.90;3.40;;;;;;;;;;6221516;22;20021;-80
2022/06/25 10:28:13;;;;;;;6.28;3.05;;;;;;;;;;6248531;22;20048;-80
2022/06/25 10:30:48;;;;;;;5.55;3.28;;;;;;;;;;6222148;22;20048;-82
2022/06/25 10:33:17;;;;;;;4.75;3.35;;;;;;;;;;6221968;22;20841;-81
2022/06/25 10:35:44;;;;;;;7.68;3.80;;;;;;;;;;6221482;22;20104;-80
2022/06/25 10:38:17;;;;;;;6.13;3.03;;;;;;;;;;6221861;22;20398;-80
2022/06/25 10:40:47;;;;;;;4.32;2.97;;;;;;;;;;6222220;22;20096;-80
2022/06/25 10:43:30;;;;;;;5.85;3.08;;;;;;;;;;6222382;22;20075;-80
2022/06/25 10:45:57;;;;;;;7.95;3.20;;;;;;;;;;6221946;22;20020;-80
2022/06/25 10:48:26;;;;;;;7.68;2.90;;;;;;;;;;6248690;22;20031;-80
2022/06/25 10:50:57;;;;;;;4.95;2.72;;;;;;;;;;6221748;22;20033;-80
2022/06/25 10:53:24;;;;;;;6.43;2.95;;;;;;;;;;6221717;22;20028;-80
2022/06/25 10:55:53;;;;;;;4.50;2.60;;;;;;;;;;6221638;22;20021;-80
2022/06/25 10:58:25;;;;;;;5.65;2.40;;;;;;;;;;6221611;22;20021;-81
2022/06/25 11:00:55;;;;;;;4.05;2.78;;;;;;;;;;6222235;22;20023;-80
2022/06/25 11:03:32;;;;;;;7.00;2.92;;;;;;;;;;6221831;22;20666;-81
2022/06/25 11:06:26;;;;;;;5.00;2.60;;;;;;;;;;6223062;22;20027;-80
2022/06/25 11:09:04;;;;;;;8.90;3.05;;;;;;;;;;6222249;22;20016;-80
2022/06/25 11:11:32;;;;;;;4.90;2.60;;;;;;;;;;6248437;22;20024;-80
2022/06/25 11:14:00;;;;;;;4.65;2.85;;;;;;;;;;6221263;22;20031;-81
2022/06/25 11:16:27;;;;;;;5.82;2.60;;;;;;;;;;6248273;22;20025;-80
2022/06/25 11:18:55;;;;;;;6.53;2.58;;;;;;;;;;6248936;22;20402;-81
2022/06/25 11:21:26;;;;;;;5.03;2.30;;;;;;;;;;6221111;22;20067;-81
2022/06/25 11:23:53;;;;;;;6.07;2.80;;;;;;;;;;6221853;22;20067;-80
2022/06/25 11:29:07;;;;;;;5.82;2.28;;;;;;;;;;6248545;22;20760;-80
2022/06/25 11:31:36;;;;;;;6.47;2.28;;;;;;;;;;6221498;22;20027;-80
2022/06/25 11:34:03;;;;;;;5.43;2.78;;;;;;;;;;6221363;22;20025;-80
2022/06/25 11:36:33;;;;;;;5.40;2.90;;;;;;;;;;6221204;22;20488;-80
2022/06/25 11:39:00;;;;;;;7.68;3.10;;;;;;;;;;6247952;22;20017;-81
2022/06/25 11:41:34;;;;;;;4.07;2.50;;;;;;;;;;6248060;22;20023;-80
2022/06/25 11:44:05;;;;;;;7.22;3.40;;;;;;;;;;6247978;22;20103;-80
2022/06/25 11:46:36;;;;;;;16.98;3.78;;;;;;;;;;6248119;22;20025;-80
2022/06/25 11:49:05;;;;;;;4.93;2.22;;;;;;;;;;6221536;22;20040;-80
2022/06/25 11:51:33;;;;;;;5.30;2.10;;;;;;;;;;6221104;22;20024;-81
2022/06/25 11:54:04;;;;;;;3.70;1.42;;;;;;;;;;6247172;22;20075;-80
2022/06/25 11:56:32;;;;;;;4.30;1.30;;;;;;;;;;6221208;22;20106;-81
2022/06/25 11:58:59;;;;;;;2.80;1.40;;;;;;;;;;6221127;22;20021;-80
2022/06/25 12:01:28;;;;;;;2.47;1.20;;;;;;;;;;6220714;22;20016;-80
2022/06/25 12:03:58;;;;;;;4.88;2.17;;;;;;;;;;6221853;22;20025;-81
2022/06/25 12:06:28;;;;;;;8.95;3.47;;;;;;;;;;6220942;22;20071;-80
2022/06/25 12:09:07;;;;;;;11.00;4.88;;;;;;;;;;6222037;22;20104;-81
2022/06/25 12:11:51;;;;;;;7.18;4.75;;;;;;;;;;6223289;22;20340;-80
2022/06/25 12:14:26;;;;;;;11.77;5.10;;;;;;;;;;6247865;22;20032;-81
2022/06/25 12:16:54;;;;;;;7.70;4.38;;;;;;;;;;6247523;22;20052;-81
2022/06/25 12:19:22;;;;;;;8.80;4.35;;;;;;;;;;6221001;22;20048;-80
2022/06/25 12:21:52;;;;;;;9.77;4.93;;;;;;;;;;6221752;22;20911;-80
2022/06/25 12:24:21;;;;;;;7.22;4.45;;;;;;;;;;6222149;22;20047;-80
2022/06/25 12:26:54;;;;;;;7.18;4.18;;;;;;;;;;6249258;22;20043;-80
2022/06/25 12:29:21;;;;;;;;;;;;;;;;;;6250298;22;20087;-79
2022/06/25 12:32:03;;;;;;;12.65;3.90;;;;;;;;;;6221486;22;44040;-80
2022/06/25 12:34:45;;;;;;;6.40;3.72;;;;;;;;;;6223954;22;20415;-80
2022/06/25 12:37:25;;;;;;;7.40;3.67;;;;;;;;;;6249142;22;20083;-81
2022/06/25 12:39:52;;;;;;;7.65;3.42;;;;;;;;;;6249503;22;20075;-80
2022/06/25 12:42:20;;;;;;;6.38;4.05;;;;;;;;;;6249518;22;20091;-81
2022/06/25 12:44:47;;;;;;;8.82;4.50;;;;;;;;;;6249310;22;20027;-80
2022/06/25 12:47:15;;;;;;;5.03;3.78;;;;;;;;;;6249237;22;20025;-80
2022/06/25 12:49:44;;;;;;;9.70;4.05;;;;;;;;;;6223042;22;20079;-80
2022/06/25 12:52:20;;;;;;;8.27;4.07;;;;;;;;;;6249747;22;20028;-80
2022/06/25 12:54:53;;;;;;;8.23;4.20;;;;;;;;;;6249142;22;20060;-80
2022/06/25 12:57:25;;;;;;;8.18;4.28;;;;;;;;;;6249647;22;20028;-80
2022/06/25 12:59:53;;;;;;;8.40;4.35;;;;;;;;;;6249163;22;20023;-81
2022/06/25 13:02:29;;;;;;;5.75;3.72;;;;;;;;;;6224391;22;20442;-80
2022/06/25 13:05:14;;;;;;;6.88;3.90;;;;;;;;;;6225763;22;20029;-80
2022/06/25 13:07:44;;;;;;;7.05;3.58;;;;;;;;;;6249246;22;20624;-80
2022/06/25 13:10:17;;;;;;;5.20;3.25;;;;;;;;;;6249414;22;20029;-81
2022/06/25 13:12:45;;;;;;;6.82;4.43;;;;;;;;;;6222597;22;20060;-81
2022/06/25 13:15:12;;;;;;;9.27;3.55;;;;;;;;;;6249321;22;20000;-80
2022/06/25 13:17:42;;;;;;;5.63;3.45;;;;;;;;;;6249495;22;20100;-80
2022/06/25 13:20:15;;;;;;;5.47;3.90;;;;;;;;;;6223218;22;20016;-80
2022/06/25 13:22:42;;;;;;;5.00;3.30;;;;;;;;;;6222634;22;20079;-80
2022/06/25 13:25:09;;;;;;;4.18;3.08;;;;;;;;;;6249733;22;20016;-80
2022/06/25 13:27:38;;;;;;;5.22;3.35;;;;;;;;;;6222920;22;20020;-80
2022/06/25 13:30:05;;;;;;;7.40;3.28;;;;;;;;;;6222409;22;20016;-81
2022/06/25 13:33:00;;;;;;;5.97;3.50;;;;;;;;;;6228489;22;20335;-81
2022/06/25 13:35:27;;;;;;;5.85;3.70;;;;;;;;;;6222238;22;20104;-81
2022/06/25 13:37:54;;;;;;;4.50;3.33;;;;;;;;;;6222461;22;20028;-81
2022/06/25 13:40:22;;;;;;;11.40;3.38;;;;;;;;;;6222215;22;20079;-81
2022/06/25 13:42:51;;;;;;;4.05;3.10;;;;;;;;;;6223217;22;20028;-82
2022/06/25 13:45:22;;;;;;;7.78;3.67;;;;;;;;;;6249008;22;20039;-82
2022/06/25 13:47:52;;;;;;;5.13;3.03;;;;;;;;;;6222596;22;20067;-82
2022/06/25 13:50:20;;;;;;;6.25;3.45;;;;;;;;;;6222390;22;20027;-82
2022/06/25 13:52:52;;;;;;;7.78;3.28;;;;;;;;;;6223756;22;20017;-81
2022/06/25 13:55:22;;;;;;;4.22;3.05;;;;;;;;;;6249097;22;20024;-81
2022/06/25 13:57:50;;;;;;;4.72;3.03;;;;;;;;;;6222427;22;20021;-81
2022/06/25 14:00:19;;;;;;;4.43;2.95;;;;;;;;;;6249537;22;20039;-81
2022/06/25 14:02:47;;;;;;;5.03;3.00;;;;;;;;;;6222294;22;20037;-81
2022/06/25 14:05:17;;;;;;;3.75;2.47;;;;;;;;;;6222231;22;20027;-81
2022/06/25 14:07:46;;;;;;;6.75;2.35;;;;;;;;;;6222498;22;20024;-81
2022/06/25 14:10:18;;;;;;;10.35;2.70;;;;;;;;;;6222406;22;20108;-81
2022/06/25 14:12:45;;;;;;;5.22;2.35;;;;;;;;;;6222408;22;21180;-81
2022/06/25 14:15:13;;;;;;;4.45;2.67;;;;;;;;;;6248748;22;20009;-81
2022/06/25 14:17:42;;;;;;;3.65;2.40;;;;;;;;;;6248893;22;20896;-82
2022/06/25 14:20:13;;;;;;;3.15;2.70;;;;;;;;;;6222179;22;20036;-82
2022/06/25 14:22:40;;;;;;;5.38;2.70;;;;;;;;;;6222456;22;20025;-81
2022/06/25 14:25:20;;;;;;;5.25;2.60;;;;;;;;;;6248848;22;20025;-81
2022/06/25 14:27:48;;;;;;;5.25;2.38;;;;;;;;;;6249110;22;20017;-81
2022/06/25 14:30:16;;;;;;;4.63;2.35;;;;;;;;;;6222161;22;20391;-81
2022/06/25 14:32:43;;;;;;;3.15;2.42;;;;;;;;;;6249209;22;20020;-81
2022/06/25 14:35:13;;;;;;;8.93;2.70;;;;;;;;;;6222048;22;20116;-81
2022/06/25 14:43:13;;;;;;;4.97;2.00;;;;;;;;;;6249664;22;20025;-81
2022/06/25 14:45:40;;;;;;;5.10;1.73;;;;;;;;;;6222085;22;20025;-81
2022/06/25 14:48:12;;;;;;;2.60;1.80;;;;;;;;;;6248298;22;20016;-81
2022/06/25 14:50:39;;;;;;;3.83;2.17;;;;;;;;;;6249244;22;20027;-81
2022/06/25 14:53:17;;;;;;;2.88;1.58;;;;;;;;;;6224411;22;20020;-81
2022/06/25 14:55:44;;;;;;;5.85;2.05;;;;;;;;;;6221545;22;20025;-82
2022/06/25 14:58:11;;;;;;;4.30;1.63;;;;;;;;;;6248613;22;20016;-82
2022/06/25 15:00:52;;;;;;;4.63;2.03;;;;;;;;;;6248328;22;20104;-81
2022/06/25 15:03:22;;;;;;;4.50;2.00;;;;;;;;;;6249032;22;20017;-81
2022/06/25 15:05:50;;;;;;;4.63;2.10;;;;;;;;;;6248852;22;20025;-81
2022/06/25 15:08:20;;;;;;;5.47;2.10;;;;;;;;;;6222765;22;20020;-82
2022/06/25 15:10:51;;;;;;;5.53;1.83;;;;;;;;;;6249212;22;20781;-81